Ash, North Carolina
Current Conditions -  °F | °C
As of 4:53 AM on Saturday 22 Nov 2014 (Local Time) from KCRE Reporting Station
Clear Clear  
Wind Chill: 27°   Ceiling: Unl
Heat Index: 33°   Visibility: 10mi
Dew Point: 23°   Wind: 7mph
Humidity: 66%   Direction: 30°NNE
Pressure: 30.52"   Gusts: NA
Location:  34.04°N, 78.52°W
Report Text: KCRE 220953Z AUTO 03006KT 10SM CLR 01/M05 A3052 RMK AO1 SLP335 T00061050
Loading
Personal Weather Stations






























Interactive Weather Map New forecast layout! Learn more

10-Day Weather Forecast

Advertisements
Track Severe Weather on mobile